sensor_id;sensor_type;location;lat;lon;timestamp;P1;durP1;ratioP1;P2;durP2;ratioP2
38117;SDS011;23928;47.562;7.508;2023-05-31T00:01:46;7.40;;;3.00;;
38117;SDS011;23928;47.562;7.508;2023-05-31T00:04:12;4.53;;;2.80;;
38117;SDS011;23928;47.562;7.508;2023-05-31T00:06:37;3.90;;;2.73;;
38117;SDS011;23928;47.562;7.508;2023-05-31T00:09:03;6.17;;;3.20;;
38117;SDS011;23928;47.562;7.508;2023-05-31T00:11:28;8.53;;;2.87;;
38117;SDS011;23928;47.562;7.508;2023-05-31T00:13:54;6.40;;;2.90;;
38117;SDS011;23928;47.562;7.508;2023-05-31T00:16:20;5.40;;;2.30;;
38117;SDS011;23928;47.562;7.508;2023-05-31T00:18:45;5.57;;;2.90;;
38117;SDS011;23928;47.562;7.508;2023-05-31T00:21:11;5.57;;;2.53;;
38117;SDS011;23928;47.562;7.508;2023-05-31T00:23:37;10.37;;;3.00;;
38117;SDS011;23928;47.562;7.508;2023-05-31T00:26:02;3.47;;;2.57;;
38117;SDS011;23928;47.562;7.508;2023-05-31T00:28:28;3.40;;;2.33;;
38117;SDS011;23928;47.562;7.508;2023-05-31T00:30:54;4.40;;;2.93;;
38117;SDS011;23928;47.562;7.508;2023-05-31T00:33:19;5.53;;;2.97;;
38117;SDS011;23928;47.562;7.508;2023-05-31T00:35:45;3.97;;;2.50;;
38117;SDS011;23928;47.562;7.508;2023-05-31T00:38:10;4.73;;;2.60;;
38117;SDS011;23928;47.562;7.508;2023-05-31T00:40:38;3.83;;;2.50;;
38117;SDS011;23928;47.562;7.508;2023-05-31T00:43:04;5.67;;;2.53;;
38117;SDS011;23928;47.562;7.508;2023-05-31T00:45:30;5.57;;;2.63;;
38117;SDS011;23928;47.562;7.508;2023-05-31T00:47:57;4.00;;;2.57;;
38117;SDS011;23928;47.562;7.508;2023-05-31T00:50:25;4.00;;;2.53;;
38117;SDS011;23928;47.562;7.508;2023-05-31T00:52:51;4.00;;;2.60;;
38117;SDS011;23928;47.562;7.508;2023-05-31T00:55:19;2.87;;;2.27;;
38117;SDS011;23928;47.562;7.508;2023-05-31T00:57:46;3.17;;;2.23;;
38117;SDS011;23928;47.562;7.508;2023-05-31T01:00:12;6.63;;;2.73;;
38117;SDS011;23928;47.562;7.508;2023-05-31T01:02:40;5.57;;;2.70;;
38117;SDS011;23928;47.562;7.508;2023-05-31T01:05:07;5.30;;;2.40;;
38117;SDS011;23928;47.562;7.508;2023-05-31T01:07:33;5.80;;;2.97;;
38117;SDS011;23928;47.562;7.508;2023-05-31T01:10:00;5.03;;;2.60;;
38117;SDS011;23928;47.562;7.508;2023-05-31T01:17:45;4.87;;;2.40;;
38117;SDS011;23928;47.562;7.508;2023-05-31T01:20:20;3.47;;;2.30;;
38117;SDS011;23928;47.562;7.508;2023-05-31T01:23:00;3.83;;;2.37;;
38117;SDS011;23928;47.562;7.508;2023-05-31T01:28:29;4.67;;;2.27;;
38117;SDS011;23928;47.562;7.508;2023-05-31T01:31:00;3.37;;;2.40;;
38117;SDS011;23928;47.562;7.508;2023-05-31T01:33:29;5.60;;;2.33;;
38117;SDS011;23928;47.562;7.508;2023-05-31T01:35:55;3.73;;;2.33;;
38117;SDS011;23928;47.562;7.508;2023-05-31T01:38:21;4.30;;;2.40;;
38117;SDS011;23928;47.562;7.508;2023-05-31T01:40:47;4.83;;;2.40;;
38117;SDS011;23928;47.562;7.508;2023-05-31T01:43:13;3.77;;;2.10;;
38117;SDS011;23928;47.562;7.508;2023-05-31T01:45:39;5.30;;;2.40;;
38117;SDS011;23928;47.562;7.508;2023-05-31T01:48:05;5.33;;;2.43;;
38117;SDS011;23928;47.562;7.508;2023-05-31T01:50:34;6.63;;;2.30;;
38117;SDS011;23928;47.562;7.508;2023-05-31T01:53:00;3.73;;;2.27;;
38117;SDS011;23928;47.562;7.508;2023-05-31T01:55:27;3.77;;;2.50;;
38117;SDS011;23928;47.562;7.508;2023-05-31T01:57:53;3.60;;;2.07;;
38117;SDS011;23928;47.562;7.508;2023-05-31T02:00:21;5.97;;;2.53;;
38117;SDS011;23928;47.562;7.508;2023-05-31T02:02:47;2.93;;;2.20;;
38117;SDS011;23928;47.562;7.508;2023-05-31T02:05:15;2.40;;;1.97;;
38117;SDS011;23928;47.562;7.508;2023-05-31T02:07:41;3.93;;;2.67;;
38117;SDS011;23928;47.562;7.508;2023-05-31T02:10:09;2.67;;;1.90;;
38117;SDS011;23928;47.562;7.508;2023-05-31T02:12:35;3.30;;;2.30;;
38117;SDS011;23928;47.562;7.508;2023-05-31T02:15:01;3.17;;;2.37;;
38117;SDS011;23928;47.562;7.508;2023-05-31T02:17:28;2.87;;;2.20;;
38117;SDS011;23928;47.562;7.508;2023-05-31T02:19:54;4.97;;;3.00;;
38117;SDS011;23928;47.562;7.508;2023-05-31T02:22:20;5.10;;;2.40;;
38117;SDS011;23928;47.562;7.508;2023-05-31T02:24:46;5.10;;;2.60;;
38117;SDS011;23928;47.562;7.508;2023-05-31T02:27:12;3.17;;;2.00;;
38117;SDS011;23928;47.562;7.508;2023-05-31T02:29:38;6.87;;;2.50;;
38117;SDS011;23928;47.562;7.508;2023-05-31T02:32:04;3.60;;;2.27;;
38117;SDS011;23928;47.562;7.508;2023-05-31T02:34:29;4.57;;;2.13;;
38117;SDS011;23928;47.562;7.508;2023-05-31T02:36:55;6.47;;;2.40;;
38117;SDS011;23928;47.562;7.508;2023-05-31T02:39:21;5.67;;;2.40;;
38117;SDS011;23928;47.562;7.508;2023-05-31T02:41:47;3.90;;;2.30;;
38117;SDS011;23928;47.562;7.508;2023-05-31T02:44:12;3.23;;;2.27;;
38117;SDS011;23928;47.562;7.508;2023-05-31T02:46:39;3.53;;;2.10;;
38117;SDS011;23928;47.562;7.508;2023-05-31T02:49:04;4.70;;;2.17;;
38117;SDS011;23928;47.562;7.508;2023-05-31T02:51:31;4.63;;;2.30;;
38117;SDS011;23928;47.562;7.508;2023-05-31T02:53:57;5.03;;;2.63;;
38117;SDS011;23928;47.562;7.508;2023-05-31T02:56:22;6.43;;;2.37;;
38117;SDS011;23928;47.562;7.508;2023-05-31T02:58:48;6.33;;;2.40;;
38117;SDS011;23928;47.562;7.508;2023-05-31T03:01:14;5.93;;;2.50;;
38117;SDS011;23928;47.562;7.508;2023-05-31T03:03:40;2.93;;;1.97;;
38117;SDS011;23928;47.562;7.508;2023-05-31T03:06:06;3.00;;;2.30;;
38117;SDS011;23928;47.562;7.508;2023-05-31T03:08:31;3.17;;;2.33;;
38117;SDS011;23928;47.562;7.508;2023-05-31T03:10:57;5.57;;;2.27;;
38117;SDS011;23928;47.562;7.508;2023-05-31T03:13:23;3.90;;;2.27;;
38117;SDS011;23928;47.562;7.508;2023-05-31T03:15:48;4.50;;;2.30;;
38117;SDS011;23928;47.562;7.508;2023-05-31T03:18:14;5.40;;;2.60;;
38117;SDS011;23928;47.562;7.508;2023-05-31T03:20:40;6.27;;;2.50;;
38117;SDS011;23928;47.562;7.508;2023-05-31T03:23:05;4.47;;;2.20;;
38117;SDS011;23928;47.562;7.508;2023-05-31T03:25:32;3.80;;;2.43;;
38117;SDS011;23928;47.562;7.508;2023-05-31T03:27:58;6.13;;;2.30;;
38117;SDS011;23928;47.562;7.508;2023-05-31T03:30:23;3.80;;;2.60;;
38117;SDS011;23928;47.562;7.508;2023-05-31T03:32:49;6.03;;;2.47;;
38117;SDS011;23928;47.562;7.508;2023-05-31T03:35:15;3.67;;;2.10;;
38117;SDS011;23928;47.562;7.508;2023-05-31T03:37:41;4.10;;;2.10;;
38117;SDS011;23928;47.562;7.508;2023-05-31T03:40:07;3.23;;;1.80;;
38117;SDS011;23928;47.562;7.508;2023-05-31T03:42:33;2.83;;;2.20;;
38117;SDS011;23928;47.562;7.508;2023-05-31T03:44:59;4.17;;;2.13;;
38117;SDS011;23928;47.562;7.508;2023-05-31T03:47:25;4.13;;;2.07;;
38117;SDS011;23928;47.562;7.508;2023-05-31T03:49:51;4.47;;;1.90;;
38117;SDS011;23928;47.562;7.508;2023-05-31T03:52:17;4.13;;;2.20;;
38117;SDS011;23928;47.562;7.508;2023-05-31T03:54:42;5.70;;;2.57;;
38117;SDS011;23928;47.562;7.508;2023-05-31T03:57:08;5.13;;;2.47;;
38117;SDS011;23928;47.562;7.508;2023-05-31T03:59:33;3.60;;;2.17;;
38117;SDS011;23928;47.562;7.508;2023-05-31T04:02:00;3.67;;;2.17;;
38117;SDS011;23928;47.562;7.508;2023-05-31T04:04:26;3.57;;;2.43;;
38117;SDS011;23928;47.562;7.508;2023-05-31T04:06:52;6.70;;;1.90;;
38117;SDS011;23928;47.562;7.508;2023-05-31T04:09:18;2.53;;;1.80;;
38117;SDS011;23928;47.562;7.508;2023-05-31T04:11:44;3.80;;;2.30;;
38117;SDS011;23928;47.562;7.508;2023-05-31T04:14:10;5.13;;;2.40;;
38117;SDS011;23928;47.562;7.508;2023-05-31T04:16:36;4.37;;;2.27;;
38117;SDS011;23928;47.562;7.508;2023-05-31T04:19:01;3.60;;;2.20;;
38117;SDS011;23928;47.562;7.508;2023-05-31T04:21:27;4.33;;;2.30;;
38117;SDS011;23928;47.562;7.508;2023-05-31T04:23:53;4.13;;;1.97;;
38117;SDS011;23928;47.562;7.508;2023-05-31T04:26:19;4.77;;;2.10;;
38117;SDS011;23928;47.562;7.508;2023-05-31T04:28:44;2.40;;;2.00;;
38117;SDS011;23928;47.562;7.508;2023-05-31T04:31:10;2.73;;;1.93;;
38117;SDS011;23928;47.562;7.508;2023-05-31T04:33:39;4.07;;;2.30;;
38117;SDS011;23928;47.562;7.508;2023-05-31T04:36:07;4.50;;;2.20;;
38117;SDS011;23928;47.562;7.508;2023-05-31T04:38:33;3.30;;;1.80;;
38117;SDS011;23928;47.562;7.508;2023-05-31T04:40:59;3.47;;;2.03;;
38117;SDS011;23928;47.562;7.508;2023-05-31T04:43:25;3.67;;;2.10;;
38117;SDS011;23928;47.562;7.508;2023-05-31T04:45:54;7.57;;;2.40;;
38117;SDS011;23928;47.562;7.508;2023-05-31T04:48:20;3.47;;;1.80;;
38117;SDS011;23928;47.562;7.508;2023-05-31T04:50:46;5.60;;;2.33;;
38117;SDS011;23928;47.562;7.508;2023-05-31T04:53:13;3.77;;;1.93;;
38117;SDS011;23928;47.562;7.508;2023-05-31T04:55:39;5.93;;;2.30;;
38117;SDS011;23928;47.562;7.508;2023-05-31T04:58:05;7.73;;;2.30;;
38117;SDS011;23928;47.562;7.508;2023-05-31T05:00:32;2.80;;;2.00;;
38117;SDS011;23928;47.562;7.508;2023-05-31T05:02:59;3.70;;;2.50;;
38117;SDS011;23928;47.562;7.508;2023-05-31T05:05:25;2.53;;;2.00;;
38117;SDS011;23928;47.562;7.508;2023-05-31T05:07:51;3.20;;;2.00;;
38117;SDS011;23928;47.562;7.508;2023-05-31T05:10:17;4.50;;;2.23;;
38117;SDS011;23928;47.562;7.508;2023-05-31T05:12:43;6.27;;;2.17;;
38117;SDS011;23928;47.562;7.508;2023-05-31T05:15:08;5.60;;;2.40;;
38117;SDS011;23928;47.562;7.508;2023-05-31T05:17:35;7.37;;;2.60;;
38117;SDS011;23928;47.562;7.508;2023-05-31T05:20:01;2.27;;;1.70;;
38117;SDS011;23928;47.562;7.508;2023-05-31T05:22:28;3.13;;;1.90;;
38117;SDS011;23928;47.562;7.508;2023-05-31T05:24:53;6.43;;;2.27;;
38117;SDS011;23928;47.562;7.508;2023-05-31T05:27:19;8.13;;;2.50;;
38117;SDS011;23928;47.562;7.508;2023-05-31T05:29:46;4.00;;;1.73;;
38117;SDS011;23928;47.562;7.508;2023-05-31T05:32:12;4.20;;;2.20;;
38117;SDS011;23928;47.562;7.508;2023-05-31T05:34:38;5.80;;;2.20;;
38117;SDS011;23928;47.562;7.508;2023-05-31T05:37:04;6.00;;;2.83;;
38117;SDS011;23928;47.562;7.508;2023-05-31T05:39:30;6.57;;;1.90;;
38117;SDS011;23928;47.562;7.508;2023-05-31T05:41:56;3.80;;;2.00;;
38117;SDS011;23928;47.562;7.508;2023-05-31T05:44:21;3.20;;;2.03;;
38117;SDS011;23928;47.562;7.508;2023-05-31T05:46:47;6.23;;;2.07;;
38117;SDS011;23928;47.562;7.508;2023-05-31T05:49:12;6.67;;;2.70;;
38117;SDS011;23928;47.562;7.508;2023-05-31T05:51:38;5.00;;;2.33;;
38117;SDS011;23928;47.562;7.508;2023-05-31T05:54:04;3.50;;;2.20;;
38117;SDS011;23928;47.562;7.508;2023-05-31T05:56:30;4.50;;;2.20;;
38117;SDS011;23928;47.562;7.508;2023-05-31T05:58:56;6.20;;;2.30;;
38117;SDS011;23928;47.562;7.508;2023-05-31T06:01:22;5.00;;;2.10;;
38117;SDS011;23928;47.562;7.508;2023-05-31T06:03:51;6.37;;;2.23;;
38117;SDS011;23928;47.562;7.508;2023-05-31T06:06:18;3.67;;;1.90;;
38117;SDS011;23928;47.562;7.508;2023-05-31T06:08:44;6.63;;;2.50;;
38117;SDS011;23928;47.562;7.508;2023-05-31T06:11:10;4.73;;;2.30;;
38117;SDS011;23928;47.562;7.508;2023-05-31T06:13:36;2.93;;;1.80;;
38117;SDS011;23928;47.562;7.508;2023-05-31T06:16:03;7.83;;;2.50;;
38117;SDS011;23928;47.562;7.508;2023-05-31T06:18:29;3.13;;;2.13;;
38117;SDS011;23928;47.562;7.508;2023-05-31T06:20:55;4.00;;;2.20;;
38117;SDS011;23928;47.562;7.508;2023-05-31T06:23:21;4.93;;;2.30;;
38117;SDS011;23928;47.562;7.508;2023-05-31T06:25:46;4.67;;;2.13;;
38117;SDS011;23928;47.562;7.508;2023-05-31T06:28:12;4.43;;;2.07;;
38117;SDS011;23928;47.562;7.508;2023-05-31T06:30:38;3.70;;;2.30;;
38117;SDS011;23928;47.562;7.508;2023-05-31T06:33:03;5.73;;;2.47;;
38117;SDS011;23928;47.562;7.508;2023-05-31T06:35:29;7.57;;;2.30;;
38117;SDS011;23928;47.562;7.508;2023-05-31T06:37:55;3.70;;;2.13;;
38117;SDS011;23928;47.562;7.508;2023-05-31T06:40:21;5.07;;;2.40;;
38117;SDS011;23928;47.562;7.508;2023-05-31T06:42:46;5.17;;;2.47;;
38117;SDS011;23928;47.562;7.508;2023-05-31T06:45:12;4.77;;;2.27;;
38117;SDS011;23928;47.562;7.508;2023-05-31T06:47:38;3.97;;;2.40;;
38117;SDS011;23928;47.562;7.508;2023-05-31T06:50:03;5.93;;;2.80;;
38117;SDS011;23928;47.562;7.508;2023-05-31T06:52:29;5.33;;;2.17;;
38117;SDS011;23928;47.562;7.508;2023-05-31T06:54:55;4.57;;;2.47;;
38117;SDS011;23928;47.562;7.508;2023-05-31T06:57:20;7.40;;;2.60;;
38117;SDS011;23928;47.562;7.508;2023-05-31T06:59:46;4.23;;;2.23;;
38117;SDS011;23928;47.562;7.508;2023-05-31T07:02:11;5.60;;;2.17;;
38117;SDS011;23928;47.562;7.508;2023-05-31T07:04:37;3.37;;;2.43;;
38117;SDS011;23928;47.562;7.508;2023-05-31T07:07:03;4.00;;;2.27;;
38117;SDS011;23928;47.562;7.508;2023-05-31T07:09:30;4.80;;;2.60;;
38117;SDS011;23928;47.562;7.508;2023-05-31T07:11:55;7.57;;;2.17;;
38117;SDS011;23928;47.562;7.508;2023-05-31T07:14:21;4.70;;;2.50;;
38117;SDS011;23928;47.562;7.508;2023-05-31T07:16:48;8.80;;;2.40;;
38117;SDS011;23928;47.562;7.508;2023-05-31T07:19:13;4.70;;;3.10;;
38117;SDS011;23928;47.562;7.508;2023-05-31T07:21:39;8.47;;;2.60;;
38117;SDS011;23928;47.562;7.508;2023-05-31T07:24:05;7.23;;;2.70;;
38117;SDS011;23928;47.562;7.508;2023-05-31T07:26:31;5.40;;;2.57;;
38117;SDS011;23928;47.562;7.508;2023-05-31T07:28:56;5.27;;;2.40;;
38117;SDS011;23928;47.562;7.508;2023-05-31T07:31:22;6.27;;;2.60;;
38117;SDS011;23928;47.562;7.508;2023-05-31T07:33:48;7.17;;;3.03;;
38117;SDS011;23928;47.562;7.508;2023-05-31T07:36:14;5.00;;;2.50;;
38117;SDS011;23928;47.562;7.508;2023-05-31T07:38:40;5.60;;;2.23;;
38117;SDS011;23928;47.562;7.508;2023-05-31T07:41:06;6.20;;;2.80;;
38117;SDS011;23928;47.562;7.508;2023-05-31T07:43:31;5.30;;;2.60;;
38117;SDS011;23928;47.562;7.508;2023-05-31T07:45:57;4.17;;;2.73;;
38117;SDS011;23928;47.562;7.508;2023-05-31T07:48:23;7.30;;;2.57;;
38117;SDS011;23928;47.562;7.508;2023-05-31T07:50:49;4.73;;;2.83;;
38117;SDS011;23928;47.562;7.508;2023-05-31T07:53:15;4.17;;;2.40;;
38117;SDS011;23928;47.562;7.508;2023-05-31T07:55:41;6.23;;;2.70;;
38117;SDS011;23928;47.562;7.508;2023-05-31T07:58:08;4.47;;;2.30;;
38117;SDS011;23928;47.562;7.508;2023-05-31T08:00:37;4.73;;;2.83;;
38117;SDS011;23928;47.562;7.508;2023-05-31T08:03:03;6.10;;;2.93;;
38117;SDS011;23928;47.562;7.508;2023-05-31T08:05:30;6.53;;;2.80;;
38117;SDS011;23928;47.562;7.508;2023-05-31T08:07:56;7.83;;;2.90;;
38117;SDS011;23928;47.562;7.508;2023-05-31T08:10:22;6.80;;;2.60;;
38117;SDS011;23928;47.562;7.508;2023-05-31T08:12:47;5.13;;;2.57;;
38117;SDS011;23928;47.562;7.508;2023-05-31T08:15:13;3.83;;;3.03;;
38117;SDS011;23928;47.562;7.508;2023-05-31T08:17:39;4.40;;;2.97;;
38117;SDS011;23928;47.562;7.508;2023-05-31T08:20:05;3.80;;;2.90;;
38117;SDS011;23928;47.562;7.508;2023-05-31T08:22:32;5.93;;;2.90;;
38117;SDS011;23928;47.562;7.508;2023-05-31T08:24:58;6.90;;;3.37;;
38117;SDS011;23928;47.562;7.508;2023-05-31T08:27:23;7.40;;;3.10;;
38117;SDS011;23928;47.562;7.508;2023-05-31T08:29:49;8.17;;;2.80;;
38117;SDS011;23928;47.562;7.508;2023-05-31T08:32:15;9.47;;;3.20;;
38117;SDS011;23928;47.562;7.508;2023-05-31T08:34:41;4.73;;;2.70;;
38117;SDS011;23928;47.562;7.508;2023-05-31T08:37:10;6.17;;;2.60;;
38117;SDS011;23928;47.562;7.508;2023-05-31T08:39:35;4.27;;;2.37;;
38117;SDS011;23928;47.562;7.508;2023-05-31T08:42:07;8.43;;;3.33;;
38117;SDS011;23928;47.562;7.508;2023-05-31T08:44:39;6.80;;;2.97;;
38117;SDS011;23928;47.562;7.508;2023-05-31T08:47:12;4.03;;;3.03;;
38117;SDS011;23928;47.562;7.508;2023-05-31T08:49:43;4.60;;;2.90;;
38117;SDS011;23928;47.562;7.508;2023-05-31T08:52:10;5.67;;;2.97;;
38117;SDS011;23928;47.562;7.508;2023-05-31T08:54:37;7.40;;;3.17;;
38117;SDS011;23928;47.562;7.508;2023-05-31T08:57:03;7.40;;;3.00;;
38117;SDS011;23928;47.562;7.508;2023-05-31T08:59:29;7.80;;;3.00;;
38117;SDS011;23928;47.562;7.508;2023-05-31T09:01:55;4.23;;;2.80;;
38117;SDS011;23928;47.562;7.508;2023-05-31T09:04:22;6.47;;;3.00;;
38117;SDS011;23928;47.562;7.508;2023-05-31T09:06:50;5.80;;;2.60;;
38117;SDS011;23928;47.562;7.508;2023-05-31T09:09:16;7.83;;;3.00;;
38117;SDS011;23928;47.562;7.508;2023-05-31T09:11:43;5.80;;;3.00;;
38117;SDS011;23928;47.562;7.508;2023-05-31T09:14:09;9.17;;;3.70;;
38117;SDS011;23928;47.562;7.508;2023-05-31T09:16:35;4.47;;;2.80;;
38117;SDS011;23928;47.562;7.508;2023-05-31T09:19:02;4.57;;;3.10;;
38117;SDS011;23928;47.562;7.508;2023-05-31T09:22:04;4.97;;;2.67;;
38117;SDS011;23928;47.562;7.508;2023-05-31T09:24:23;6.27;;;2.97;;
38117;SDS011;23928;47.562;7.508;2023-05-31T09:26:49;8.50;;;2.97;;
38117;SDS011;23928;47.562;7.508;2023-05-31T09:29:16;4.77;;;2.50;;
38117;SDS011;23928;47.562;7.508;2023-05-31T09:31:43;4.63;;;2.70;;
38117;SDS011;23928;47.562;7.508;2023-05-31T09:34:24;4.83;;;2.70;;
38117;SDS011;23928;47.562;7.508;2023-05-31T09:36:51;6.30;;;3.07;;
38117;SDS011;23928;47.562;7.508;2023-05-31T09:39:17;5.17;;;3.20;;
38117;SDS011;23928;47.562;7.508;2023-05-31T09:41:45;6.27;;;3.20;;
38117;SDS011;23928;47.562;7.508;2023-05-31T09:44:15;8.97;;;3.27;;
38117;SDS011;23928;47.562;7.508;2023-05-31T09:46:41;8.63;;;2.73;;
38117;SDS011;23928;47.562;7.508;2023-05-31T09:49:06;5.40;;;3.40;;
38117;SDS011;23928;47.562;7.508;2023-05-31T09:51:34;4.70;;;3.10;;
38117;SDS011;23928;47.562;7.508;2023-05-31T09:54:11;4.80;;;3.20;;
38117;SDS011;23928;47.562;7.508;2023-05-31T09:56:41;5.60;;;2.83;;
38117;SDS011;23928;47.562;7.508;2023-05-31T09:59:06;5.53;;;3.07;;
38117;SDS011;23928;47.562;7.508;2023-05-31T10:01:33;7.83;;;3.13;;
38117;SDS011;23928;47.562;7.508;2023-05-31T10:04:03;6.87;;;2.90;;
38117;SDS011;23928;47.562;7.508;2023-05-31T10:06:30;3.60;;;3.00;;
38117;SDS011;23928;47.562;7.508;2023-05-31T10:09:05;5.13;;;2.93;;
38117;SDS011;23928;47.562;7.508;2023-05-31T10:11:35;7.47;;;3.40;;
38117;SDS011;23928;47.562;7.508;2023-05-31T10:14:14;5.30;;;3.00;;
38117;SDS011;23928;47.562;7.508;2023-05-31T10:16:54;7.43;;;3.27;;
38117;SDS011;23928;47.562;7.508;2023-05-31T10:19:24;3.90;;;2.90;;
38117;SDS011;23928;47.562;7.508;2023-05-31T10:22:05;6.23;;;3.50;;
38117;SDS011;23928;47.562;7.508;2023-05-31T10:24:37;7.33;;;3.57;;
38117;SDS011;23928;47.562;7.508;2023-05-31T10:29:53;5.93;;;3.10;;
38117;SDS011;23928;47.562;7.508;2023-05-31T10:32:28;6.30;;;3.10;;
38117;SDS011;23928;47.562;7.508;2023-05-31T10:34:57;7.93;;;2.73;;
38117;SDS011;23928;47.562;7.508;2023-05-31T10:37:23;4.57;;;3.00;;
38117;SDS011;23928;47.562;7.508;2023-05-31T10:40:01;4.07;;;2.77;;
38117;SDS011;23928;47.562;7.508;2023-05-31T10:42:50;5.43;;;2.73;;
38117;SDS011;23928;47.562;7.508;2023-05-31T10:45:29;4.17;;;2.70;;
38117;SDS011;23928;47.562;7.508;2023-05-31T10:48:15;4.70;;;2.83;;
38117;SDS011;23928;47.562;7.508;2023-05-31T10:51:02;5.30;;;3.07;;
38117;SDS011;23928;47.562;7.508;2023-05-31T10:53:28;3.43;;;2.93;;
38117;SDS011;23928;47.562;7.508;2023-05-31T10:56:00;7.33;;;3.10;;
38117;SDS011;23928;47.562;7.508;2023-05-31T10:58:29;6.07;;;2.83;;
38117;SDS011;23928;47.562;7.508;2023-05-31T11:01:17;3.93;;;2.97;;
38117;SDS011;23928;47.562;7.508;2023-05-31T11:06:28;4.80;;;3.17;;
38117;SDS011;23928;47.562;7.508;2023-05-31T11:08:59;6.87;;;2.83;;
38117;SDS011;23928;47.562;7.508;2023-05-31T11:14:08;6.27;;;3.13;;
38117;SDS011;23928;47.562;7.508;2023-05-31T11:19:34;8.03;;;3.20;;
38117;SDS011;23928;47.562;7.508;2023-05-31T11:22:08;4.53;;;2.87;;
38117;SDS011;23928;47.562;7.508;2023-05-31T11:27:12;5.27;;;3.27;;
38117;SDS011;23928;47.562;7.508;2023-05-31T11:32:19;5.73;;;3.10;;
38117;SDS011;23928;47.562;7.508;2023-05-31T11:35:04;4.00;;;2.90;;
38117;SDS011;23928;47.562;7.508;2023-05-31T11:37:33;5.53;;;3.07;;
38117;SDS011;23928;47.562;7.508;2023-05-31T11:40:01;3.30;;;2.80;;
38117;SDS011;23928;47.562;7.508;2023-05-31T11:42:32;4.17;;;2.77;;
38117;SDS011;23928;47.562;7.508;2023-05-31T11:45:03;4.93;;;2.90;;
38117;SDS011;23928;47.562;7.508;2023-05-31T11:50:20;6.00;;;3.10;;
38117;SDS011;23928;47.562;7.508;2023-05-31T11:52:48;4.93;;;2.70;;
38117;SDS011;23928;47.562;7.508;2023-05-31T11:55:14;7.53;;;3.30;;
38117;SDS011;23928;47.562;7.508;2023-05-31T11:57:43;4.87;;;2.87;;
38117;SDS011;23928;47.562;7.508;2023-05-31T12:00:09;6.00;;;3.03;;
38117;SDS011;23928;47.562;7.508;2023-05-31T12:02:40;9.63;;;3.30;;
38117;SDS011;23928;47.562;7.508;2023-05-31T12:05:10;7.30;;;3.40;;
38117;SDS011;23928;47.562;7.508;2023-05-31T12:07:36;4.60;;;3.20;;
38117;SDS011;23928;47.562;7.508;2023-05-31T12:10:04;5.03;;;3.13;;
38117;SDS011;23928;47.562;7.508;2023-05-31T12:12:30;4.43;;;3.10;;
38117;SDS011;23928;47.562;7.508;2023-05-31T12:14:57;4.93;;;3.00;;
38117;SDS011;23928;47.562;7.508;2023-05-31T12:17:22;6.47;;;3.10;;
38117;SDS011;23928;47.562;7.508;2023-05-31T12:19:48;5.50;;;3.03;;
38117;SDS011;23928;47.562;7.508;2023-05-31T12:22:14;4.93;;;3.10;;
38117;SDS011;23928;47.562;7.508;2023-05-31T12:24:49;7.07;;;3.10;;
38117;SDS011;23928;47.562;7.508;2023-05-31T12:27:19;8.43;;;3.30;;
38117;SDS011;23928;47.562;7.508;2023-05-31T12:29:47;4.43;;;3.07;;
38117;SDS011;23928;47.562;7.508;2023-05-31T12:32:12;4.23;;;3.33;;
38117;SDS011;23928;47.562;7.508;2023-05-31T12:34:38;5.10;;;3.00;;
38117;SDS011;23928;47.562;7.508;2023-05-31T12:37:10;14.23;;;3.33;;
38117;SDS011;23928;47.562;7.508;2023-05-31T12:39:36;4.87;;;3.10;;
38117;SDS011;23928;47.562;7.508;2023-05-31T12:42:05;6.83;;;3.20;;
38117;SDS011;23928;47.562;7.508;2023-05-31T12:44:32;5.57;;;3.47;;
38117;SDS011;23928;47.562;7.508;2023-05-31T12:47:08;6.20;;;3.43;;
38117;SDS011;23928;47.562;7.508;2023-05-31T12:49:34;6.47;;;3.33;;
38117;SDS011;23928;47.562;7.508;2023-05-31T12:54:28;3.83;;;2.90;;
38117;SDS011;23928;47.562;7.508;2023-05-31T12:56:56;6.27;;;2.70;;
38117;SDS011;23928;47.562;7.508;2023-05-31T12:59:23;6.73;;;3.10;;
38117;SDS011;23928;47.562;7.508;2023-05-31T13:01:50;4.53;;;3.13;;
38117;SDS011;23928;47.562;7.508;2023-05-31T13:04:15;4.40;;;3.13;;
38117;SDS011;23928;47.562;7.508;2023-05-31T13:06:41;6.20;;;3.23;;
38117;SDS011;23928;47.562;7.508;2023-05-31T13:09:07;5.50;;;3.40;;
38117;SDS011;23928;47.562;7.508;2023-05-31T13:11:33;4.97;;;2.93;;
38117;SDS011;23928;47.562;7.508;2023-05-31T13:14:00;5.87;;;3.17;;
38117;SDS011;23928;47.562;7.508;2023-05-31T13:16:26;8.83;;;3.70;;
38117;SDS011;23928;47.562;7.508;2023-05-31T13:18:52;4.77;;;2.87;;
38117;SDS011;23928;47.562;7.508;2023-05-31T13:21:17;5.03;;;3.13;;
38117;SDS011;23928;47.562;7.508;2023-05-31T13:23:43;5.50;;;3.20;;
38117;SDS011;23928;47.562;7.508;2023-05-31T13:26:08;7.17;;;3.30;;
38117;SDS011;23928;47.562;7.508;2023-05-31T13:28:34;7.43;;;3.03;;
38117;SDS011;23928;47.562;7.508;2023-05-31T13:31:00;6.33;;;2.93;;
38117;SDS011;23928;47.562;7.508;2023-05-31T13:33:25;7.13;;;3.13;;
38117;SDS011;23928;47.562;7.508;2023-05-31T13:35:53;5.07;;;2.90;;
38117;SDS011;23928;47.562;7.508;2023-05-31T13:38:20;6.33;;;2.80;;
38117;SDS011;23928;47.562;7.508;2023-05-31T13:40:47;5.00;;;3.57;;
38117;SDS011;23928;47.562;7.508;2023-05-31T13:43:12;5.37;;;3.20;;
38117;SDS011;23928;47.562;7.508;2023-05-31T13:45:39;4.83;;;3.07;;
38117;SDS011;23928;47.562;7.508;2023-05-31T13:48:04;6.80;;;3.33;;
38117;SDS011;23928;47.562;7.508;2023-05-31T13:50:30;6.37;;;3.30;;
38117;SDS011;23928;47.562;7.508;2023-05-31T13:52:56;3.57;;;2.80;;
38117;SDS011;23928;47.562;7.508;2023-05-31T13:55:21;4.57;;;3.30;;
38117;SDS011;23928;47.562;7.508;2023-05-31T13:57:47;6.03;;;3.53;;
38117;SDS011;23928;47.562;7.508;2023-05-31T14:00:12;5.13;;;2.93;;
38117;SDS011;23928;47.562;7.508;2023-05-31T14:02:38;4.50;;;2.93;;
38117;SDS011;23928;47.562;7.508;2023-05-31T14:05:07;5.30;;;3.30;;
38117;SDS011;23928;47.562;7.508;2023-05-31T14:07:33;4.73;;;3.00;;
38117;SDS011;23928;47.562;7.508;2023-05-31T14:10:00;5.17;;;3.10;;
38117;SDS011;23928;47.562;7.508;2023-05-31T14:12:25;5.03;;;3.27;;
38117;SDS011;23928;47.562;7.508;2023-05-31T14:14:51;8.30;;;3.47;;
38117;SDS011;23928;47.562;7.508;2023-05-31T14:17:16;7.10;;;3.30;;
38117;SDS011;23928;47.562;7.508;2023-05-31T14:19:42;5.97;;;3.03;;
38117;SDS011;23928;47.562;7.508;2023-05-31T14:22:08;4.37;;;3.30;;
38117;SDS011;23928;47.562;7.508;2023-05-31T14:24:34;3.57;;;3.20;;
38117;SDS011;23928;47.562;7.508;2023-05-31T14:26:59;3.43;;;2.87;;
38117;SDS011;23928;47.562;7.508;2023-05-31T14:29:25;5.27;;;3.70;;
38117;SDS011;23928;47.562;7.508;2023-05-31T14:31:51;5.80;;;3.27;;
38117;SDS011;23928;47.562;7.508;2023-05-31T14:34:17;6.40;;;3.07;;
38117;SDS011;23928;47.562;7.508;2023-05-31T14:36:43;3.30;;;2.90;;
38117;SDS011;23928;47.562;7.508;2023-05-31T14:39:08;5.00;;;3.00;;
38117;SDS011;23928;47.562;7.508;2023-05-31T14:41:34;4.07;;;2.93;;
38117;SDS011;23928;47.562;7.508;2023-05-31T14:44:00;4.97;;;3.17;;
38117;SDS011;23928;47.562;7.508;2023-05-31T14:46:27;5.40;;;3.23;;
38117;SDS011;23928;47.562;7.508;2023-05-31T14:48:53;6.17;;;2.97;;
38117;SDS011;23928;47.562;7.508;2023-05-31T14:51:19;4.23;;;2.83;;
38117;SDS011;23928;47.562;7.508;2023-05-31T14:53:44;3.63;;;3.13;;
38117;SDS011;23928;47.562;7.508;2023-05-31T14:56:10;3.33;;;2.90;;
38117;SDS011;23928;47.562;7.508;2023-05-31T14:58:36;4.70;;;3.33;;
38117;SDS011;23928;47.562;7.508;2023-05-31T15:01:01;8.90;;;3.40;;
38117;SDS011;23928;47.562;7.508;2023-05-31T15:03:27;7.30;;;2.80;;
38117;SDS011;23928;47.562;7.508;2023-05-31T15:05:53;5.07;;;3.07;;
38117;SDS011;23928;47.562;7.508;2023-05-31T15:08:18;8.00;;;3.03;;
38117;SDS011;23928;47.562;7.508;2023-05-31T15:10:44;3.97;;;2.90;;
38117;SDS011;23928;47.562;7.508;2023-05-31T15:13:09;7.30;;;3.37;;
38117;SDS011;23928;47.562;7.508;2023-05-31T15:15:35;4.50;;;3.00;;
38117;SDS011;23928;47.562;7.508;2023-05-31T15:18:02;7.77;;;3.10;;